createdAt,value
2019-03-25T00:01:19.482Z,73.00
2019-03-25T00:03:47.930Z,73.30
2019-03-25T00:06:16.369Z,73.60
2019-03-25T00:08:44.822Z,73.90
2019-03-25T00:11:13.242Z,74.10
2019-03-25T00:13:41.689Z,74.30
2019-03-25T00:16:10.112Z,74.30
2019-03-25T00:18:38.563Z,74.40
2019-03-25T00:21:07.194Z,74.40
2019-03-25T00:23:35.663Z,75.00
2019-03-25T00:26:07.070Z,74.50
2019-03-25T00:28:35.514Z,74.30
2019-03-25T00:31:04.358Z,74.10
2019-03-25T00:33:32.793Z,73.90
2019-03-25T00:36:11.642Z,73.50
2019-03-25T00:38:31.434Z,73.20
2019-03-25T00:40:59.926Z,72.80
2019-03-25T00:43:28.398Z,72.90
2019-03-25T00:45:57.071Z,72.80
2019-03-25T00:48:25.493Z,73.20
2019-03-25T00:50:54.000Z,72.80
2019-03-25T00:53:22.802Z,72.60
2019-03-25T00:55:51.263Z,71.00
2019-03-25T00:58:19.701Z,73.50
2019-03-25T01:00:48.114Z,76.20
2019-03-25T01:03:16.540Z,77.80
2019-03-25T01:05:44.963Z,79.60
2019-03-25T01:08:13.483Z,79.90
2019-03-25T01:10:41.894Z,79.10
2019-03-25T01:13:10.338Z,78.70
2019-03-25T01:15:38.972Z,78.40
2019-03-25T01:18:16.301Z,78.80
2019-03-25T01:20:37.766Z,78.50
2019-03-25T01:23:06.181Z,78.60
2019-03-25T01:25:34.635Z,78.40
2019-03-25T01:28:03.052Z,78.90
2019-03-25T01:30:31.471Z,78.80
2019-03-25T01:33:00.366Z,79.30
2019-03-25T01:35:28.822Z,79.70
2019-03-25T01:37:58.028Z,79.80
2019-03-25T01:40:26.465Z,80.00
2019-03-25T01:42:54.890Z,79.10
2019-03-25T01:45:23.327Z,77.80
2019-03-25T01:47:51.767Z,76.60
2019-03-25T01:50:20.206Z,76.40
2019-03-25T01:52:48.662Z,76.80
2019-03-25T01:55:17.102Z,77.20
2019-03-25T01:57:45.533Z,77.90
2019-03-25T02:00:15.885Z,78.90
2019-03-25T02:02:44.385Z,79.80
2019-03-25T02:05:12.827Z,80.20
2019-03-25T02:07:41.270Z,80.70
2019-03-25T02:10:10.481Z,80.50
2019-03-25T02:12:38.898Z,79.80
2019-03-25T02:15:07.771Z,78.70
2019-03-25T02:17:36.217Z,78.50
2019-03-25T02:20:06.246Z,78.10
2019-03-25T02:22:35.154Z,78.00
2019-03-25T02:25:05.910Z,77.70
2019-03-25T02:27:34.365Z,77.40
2019-03-25T02:30:03.764Z,77.00
2019-03-25T02:32:32.242Z,76.70
2019-03-25T02:35:00.762Z,76.80
2019-03-25T02:37:29.174Z,76.80
2019-03-25T02:39:57.623Z,77.00
2019-03-25T02:42:26.084Z,76.70
2019-03-25T02:44:54.575Z,76.20
2019-03-25T02:47:23.028Z,76.50
2019-03-25T02:49:51.454Z,76.70
2019-03-25T02:52:19.910Z,76.40
2019-03-25T02:54:48.423Z,76.40
2019-03-25T02:57:16.930Z,76.30
2019-03-25T02:59:45.352Z,75.70
2019-03-25T03:02:13.815Z,75.80
2019-03-25T03:04:42.304Z,75.50
2019-03-25T03:07:10.734Z,75.70
2019-03-25T03:09:39.193Z,76.10
2019-03-25T03:12:07.891Z,75.40
2019-03-25T03:14:36.343Z,75.20
2019-03-25T03:17:04.856Z,75.10
2019-03-25T03:19:33.279Z,74.90
2019-03-25T03:22:01.739Z,75.20
2019-03-25T03:24:30.144Z,75.30
2019-03-25T03:26:58.604Z,75.30
2019-03-25T03:29:27.587Z,75.30
2019-03-25T03:31:56.023Z,75.10
2019-03-25T03:34:24.465Z,74.90
2019-03-25T03:36:52.887Z,74.10
2019-03-25T03:39:21.347Z,73.60
2019-03-25T03:41:49.762Z,73.50
2019-03-25T03:44:18.196Z,74.10
2019-03-25T03:46:46.606Z,73.20
2019-03-25T03:49:15.042Z,72.50
2019-03-25T03:51:43.552Z,72.40
2019-03-25T03:54:12.044Z,72.90
2019-03-25T03:56:40.491Z,72.90
2019-03-25T03:59:09.075Z,72.80
2019-03-25T04:01:37.516Z,72.60
2019-03-25T04:04:06.143Z,72.30
2019-03-25T04:06:34.574Z,72.40
2019-03-25T04:09:03.187Z,72.10
2019-03-25T04:11:31.602Z,72.50
2019-03-25T04:14:00.039Z,72.60
2019-03-25T04:16:28.486Z,72.10
2019-03-25T04:18:56.943Z,71.60
2019-03-25T04:21:25.422Z,70.80
2019-03-25T04:23:54.308Z,71.40
2019-03-25T04:26:28.841Z,71.70
2019-03-25T04:28:52.890Z,71.70
2019-03-25T04:31:21.307Z,71.60
2019-03-25T04:33:49.752Z,71.30
2019-03-25T04:36:18.235Z,71.50
2019-03-25T04:38:46.846Z,71.20
2019-03-25T04:41:15.307Z,71.20
2019-03-25T04:43:43.730Z,71.00
2019-03-25T04:46:12.262Z,71.10
2019-03-25T04:48:40.688Z,70.50
2019-03-25T04:51:09.196Z,70.70
2019-03-25T04:53:37.703Z,70.70
2019-03-25T04:56:06.152Z,70.30
2019-03-25T04:58:34.563Z,69.80
2019-03-25T05:01:03.010Z,68.70
2019-03-25T05:03:31.473Z,68.80
2019-03-25T05:05:59.908Z,68.90
2019-03-25T05:08:28.359Z,67.60
2019-03-25T05:10:56.859Z,67.60
2019-03-25T05:13:25.277Z,67.50
2019-03-25T05:15:53.707Z,68.00
2019-03-25T05:18:22.626Z,68.10
2019-03-25T05:20:51.072Z,68.30
2019-03-25T05:23:19.514Z,68.00
2019-03-25T05:25:47.945Z,67.90
2019-03-25T05:28:16.406Z,68.40
2019-03-25T05:30:44.974Z,68.20
2019-03-25T05:33:13.394Z,68.20
2019-03-25T05:35:41.922Z,68.40
2019-03-25T05:38:10.370Z,68.80
2019-03-25T05:40:38.791Z,68.60
2019-03-25T05:43:07.310Z,68.70
2019-03-25T05:45:35.722Z,68.40
2019-03-25T05:48:04.191Z,67.70
2019-03-25T05:50:32.646Z,68.60
2019-03-25T05:53:01.095Z,67.90
2019-03-25T05:55:29.522Z,68.10
2019-03-25T05:57:57.958Z,68.50
2019-03-25T06:00:28.042Z,68.80
2019-03-25T06:02:56.456Z,68.70
2019-03-25T06:05:24.902Z,68.40
2019-03-25T06:07:53.311Z,69.80
2019-03-25T06:10:21.828Z,71.40
2019-03-25T06:12:50.262Z,71.30
2019-03-25T06:15:18.833Z,72.10
2019-03-25T06:17:47.241Z,72.10
2019-03-25T06:20:16.096Z,73.00
2019-03-25T06:22:44.519Z,74.00
2019-03-25T06:25:13.144Z,74.30
2019-03-25T06:27:41.570Z,74.30
2019-03-25T06:30:11.038Z,73.90
2019-03-25T06:32:39.599Z,73.00
2019-03-25T06:35:09.129Z,72.20
2019-03-25T06:37:37.654Z,71.30
2019-03-25T06:40:08.055Z,71.10
2019-03-25T06:42:36.502Z,73.10
2019-03-25T06:45:07.582Z,74.80
2019-03-25T06:47:36.028Z,76.30
2019-03-25T06:50:07.369Z,77.50
2019-03-25T06:52:35.833Z,72.90
2019-03-25T06:55:06.026Z,67.60
2019-03-25T06:57:34.449Z,64.00
2019-03-25T07:00:04.543Z,66.00
2019-03-25T07:02:32.966Z,67.90
2019-03-25T07:05:01.436Z,70.80
2019-03-25T07:07:29.863Z,71.70
2019-03-25T07:09:58.434Z,69.90
2019-03-25T07:12:26.846Z,69.90
2019-03-25T07:14:55.275Z,70.90
2019-03-25T07:17:23.702Z,71.10
2019-03-25T07:19:52.130Z,71.60
2019-03-25T07:22:20.558Z,71.20
2019-03-25T07:24:49.030Z,72.00
2019-03-25T07:27:17.600Z,70.80
2019-03-25T07:29:46.018Z,68.80
2019-03-25T07:32:14.466Z,68.80
2019-03-25T07:34:42.910Z,68.30
2019-03-25T07:37:11.319Z,67.40
2019-03-25T07:39:39.770Z,68.10
2019-03-25T07:42:08.191Z,67.50
2019-03-25T07:44:36.734Z,64.90
2019-03-25T07:47:05.160Z,64.10
2019-03-25T07:49:35.935Z,61.60
2019-03-25T07:52:04.401Z,59.80
2019-03-25T07:54:32.991Z,57.10
2019-03-25T07:57:01.590Z,56.70
2019-03-25T07:59:30.166Z,59.40
2019-03-25T08:01:58.718Z,59.80
2019-03-25T08:04:27.139Z,58.60
2019-03-25T08:06:55.592Z,57.40
2019-03-25T08:09:24.027Z,58.20
2019-03-25T08:11:52.514Z,58.80
2019-03-25T08:14:20.955Z,60.30
2019-03-25T08:16:49.470Z,60.00
2019-03-25T08:19:17.944Z,57.10
2019-03-25T08:21:46.494Z,53.60
2019-03-25T08:24:14.915Z,53.20
2019-03-25T08:26:43.331Z,53.10
2019-03-25T08:29:11.821Z,50.70
2019-03-25T08:31:40.256Z,50.10
2019-03-25T08:34:08.835Z,50.90
2019-03-25T08:36:37.290Z,51.80
2019-03-25T08:39:07.224Z,53.70
2019-03-25T08:41:35.666Z,53.80
2019-03-25T08:44:04.309Z,53.00
2019-03-25T08:46:32.717Z,50.80
2019-03-25T08:49:01.166Z,51.20
2019-03-25T08:51:29.614Z,51.80
2019-03-25T08:53:58.049Z,51.80
2019-03-25T08:56:26.478Z,54.50
2019-03-25T08:58:54.911Z,55.50
2019-03-25T09:01:23.327Z,55.60
2019-03-25T09:03:51.754Z,55.90
2019-03-25T09:06:20.197Z,57.90
2019-03-25T09:08:48.649Z,57.80
2019-03-25T09:11:17.098Z,58.10
2019-03-25T09:13:45.608Z,59.10
2019-03-25T09:16:14.019Z,60.40
2019-03-25T09:18:45.351Z,59.50
2019-03-25T09:21:13.762Z,58.60
2019-03-25T09:23:42.218Z,59.40
2019-03-25T09:26:10.694Z,60.20
2019-03-25T09:28:39.139Z,61.00
2019-03-25T09:31:10.432Z,60.40
2019-03-25T09:33:39.471Z,59.80
2019-03-25T09:36:07.958Z,60.50
2019-03-25T09:38:36.399Z,61.10
2019-03-25T09:41:04.921Z,61.10
2019-03-25T09:43:33.386Z,61.40
2019-03-25T09:46:01.886Z,61.00
2019-03-25T09:48:30.416Z,60.80
2019-03-25T09:50:58.847Z,61.30
2019-03-25T09:53:27.377Z,61.40
2019-03-25T09:55:58.156Z,61.80
2019-03-25T09:58:35.753Z,61.00
2019-03-25T10:00:56.795Z,60.10
2019-03-25T10:03:25.239Z,60.10
2019-03-25T10:05:53.678Z,59.50
2019-03-25T10:08:22.116Z,59.60
2019-03-25T10:10:50.583Z,59.90
2019-03-25T10:13:19.058Z,59.20
2019-03-25T10:15:47.507Z,59.90
2019-03-25T10:18:15.928Z,60.60
2019-03-25T10:20:44.350Z,60.00
2019-03-25T10:23:12.804Z,60.30
2019-03-25T10:25:41.218Z,59.80
2019-03-25T10:28:09.645Z,61.10
2019-03-25T10:30:38.089Z,61.30
2019-03-25T10:33:06.507Z,60.70
2019-03-25T10:35:34.958Z,61.20
2019-03-25T10:38:03.558Z,61.30
2019-03-25T10:40:32.023Z,61.40
2019-03-25T10:43:00.450Z,61.50
2019-03-25T10:45:28.863Z,61.60
2019-03-25T10:47:57.312Z,60.70
2019-03-25T10:50:25.760Z,59.10
2019-03-25T10:52:54.214Z,60.50
2019-03-25T10:55:23.118Z,60.90
2019-03-25T10:57:51.574Z,61.20
2019-03-25T11:00:20.507Z,62.30
2019-03-25T11:02:48.951Z,62.60
2019-03-25T11:05:17.518Z,60.70
2019-03-25T11:07:45.999Z,61.30
2019-03-25T11:10:14.786Z,62.00
2019-03-25T11:12:43.230Z,61.40
2019-03-25T11:15:12.799Z,60.20
2019-03-25T11:17:41.283Z,60.20
2019-03-25T11:20:10.399Z,61.00
2019-03-25T11:22:38.896Z,60.30
2019-03-25T11:25:08.997Z,61.60
2019-03-25T11:27:38.286Z,60.70
2019-03-25T11:30:09.496Z,59.90
2019-03-25T11:32:38.055Z,59.80
2019-03-25T11:35:08.726Z,59.60
2019-03-25T11:37:37.311Z,60.80
2019-03-25T11:40:07.586Z,61.20
2019-03-25T11:42:36.106Z,61.40
2019-03-25T11:45:07.312Z,60.30
2019-03-25T11:47:35.750Z,60.50
2019-03-25T11:50:06.518Z,61.30
2019-03-25T11:52:34.967Z,62.00
2019-03-25T11:55:04.454Z,61.30
2019-03-25T11:57:32.887Z,62.20
2019-03-25T12:00:01.354Z,62.50
2019-03-25T12:02:29.864Z,62.20
2019-03-25T12:04:58.306Z,62.70
2019-03-25T12:07:26.778Z,62.40
2019-03-25T12:09:55.251Z,63.10
2019-03-25T12:12:23.670Z,62.90
2019-03-25T12:14:52.116Z,63.10
2019-03-25T12:17:20.581Z,63.30
2019-03-25T12:19:49.058Z,62.40
2019-03-25T12:22:17.518Z,62.20
2019-03-25T12:24:45.972Z,62.60
2019-03-25T12:27:15.298Z,63.20
2019-03-25T12:29:43.775Z,63.30
2019-03-25T12:32:12.292Z,63.50
2019-03-25T12:34:40.835Z,63.30
2019-03-25T12:37:09.282Z,62.30
2019-03-25T12:39:37.780Z,63.50
2019-03-25T12:42:06.207Z,63.00
2019-03-25T12:44:34.660Z,63.70
2019-03-25T12:47:03.136Z,63.60
2019-03-25T12:49:31.591Z,64.50
2019-03-25T12:52:00.019Z,64.90
2019-03-25T12:54:28.461Z,64.30
2019-03-25T12:56:56.900Z,64.20
2019-03-25T12:59:25.319Z,64.30
2019-03-25T13:01:53.745Z,65.50
2019-03-25T13:04:22.443Z,65.50
2019-03-25T13:06:50.903Z,65.60
2019-03-25T13:09:19.342Z,65.10
2019-03-25T13:11:47.772Z,64.60
2019-03-25T13:14:16.235Z,65.60
2019-03-25T13:16:44.739Z,64.50
2019-03-25T13:19:13.199Z,64.30
2019-03-25T13:21:42.067Z,64.10
2019-03-25T13:24:10.590Z,64.20
2019-03-25T13:26:39.333Z,64.80
2019-03-25T13:29:07.847Z,64.60
2019-03-25T13:31:36.295Z,64.80
2019-03-25T13:34:04.753Z,64.50
2019-03-25T13:36:33.251Z,64.50
2019-03-25T13:39:02.103Z,65.10
2019-03-25T13:41:30.541Z,64.90
2019-03-25T13:43:58.994Z,64.90
2019-03-25T13:46:27.419Z,64.90
2019-03-25T13:48:55.846Z,65.50
2019-03-25T13:51:24.317Z,65.60
2019-03-25T13:53:52.743Z,66.50
2019-03-25T13:56:21.586Z,66.30
2019-03-25T13:58:50.014Z,65.70
2019-03-25T14:01:18.468Z,65.70
2019-03-25T14:03:46.965Z,65.70
2019-03-25T14:06:15.407Z,65.70
2019-03-25T14:08:43.851Z,65.10
2019-03-25T14:11:12.334Z,65.20
2019-03-25T14:13:48.790Z,65.70
2019-03-25T14:16:11.070Z,64.80
2019-03-25T14:18:39.511Z,65.20
2019-03-25T14:21:07.971Z,65.30
2019-03-25T14:23:36.420Z,65.00
2019-03-25T14:26:04.867Z,65.40
2019-03-25T14:28:33.294Z,66.20
2019-03-25T14:31:01.753Z,66.60
2019-03-25T14:33:30.170Z,66.50
2019-03-25T14:35:58.610Z,67.20
2019-03-25T14:38:27.040Z,67.70
2019-03-25T14:40:57.643Z,68.00
2019-03-25T14:43:26.130Z,68.10
2019-03-25T14:45:54.666Z,68.00
2019-03-25T14:48:23.205Z,68.00
2019-03-25T14:50:51.630Z,68.00
2019-03-25T14:53:20.078Z,68.00
2019-03-25T14:55:48.515Z,68.20
2019-03-25T14:58:17.046Z,67.60
2019-03-25T15:00:45.510Z,67.20
2019-03-25T15:03:14.036Z,67.50
2019-03-25T15:05:42.511Z,67.40
2019-03-25T15:08:10.954Z,67.40
2019-03-25T15:10:39.397Z,67.50
2019-03-25T15:13:07.846Z,68.10
2019-03-25T15:15:36.398Z,67.70
2019-03-25T15:18:15.014Z,67.40
2019-03-25T15:20:35.020Z,67.40
2019-03-25T15:23:03.526Z,67.70
2019-03-25T15:25:33.128Z,67.20
2019-03-25T15:28:01.578Z,66.00
2019-03-25T15:30:35.992Z,66.30
2019-03-25T15:33:00.275Z,66.90
2019-03-25T15:35:28.765Z,67.00
2019-03-25T15:37:57.207Z,66.80
2019-03-25T15:40:27.233Z,66.10
2019-03-25T15:42:55.883Z,65.80
2019-03-25T15:45:24.392Z,65.20
2019-03-25T15:47:52.818Z,65.20
2019-03-25T15:50:21.337Z,65.00
2019-03-25T15:52:49.854Z,65.10
2019-03-25T15:55:18.320Z,65.00
2019-03-25T15:57:46.859Z,64.70
2019-03-25T16:00:18.318Z,65.20
2019-03-25T16:02:47.150Z,65.80
2019-03-25T16:05:16.642Z,66.60
2019-03-25T16:07:45.166Z,66.30
2019-03-25T16:10:15.718Z,65.60
2019-03-25T16:12:44.171Z,65.90
2019-03-25T16:15:13.140Z,65.10
2019-03-25T16:17:43.242Z,65.10
2019-03-25T16:20:11.966Z,65.50
2019-03-25T16:22:40.434Z,66.30
2019-03-25T16:25:10.538Z,66.70
2019-03-25T16:27:38.990Z,67.00
2019-03-25T16:30:08.770Z,66.80
2019-03-25T16:32:37.623Z,66.70
2019-03-25T16:35:06.687Z,67.00
2019-03-25T16:37:35.123Z,66.80
2019-03-25T16:40:04.540Z,67.10
2019-03-25T16:42:33.010Z,68.10
2019-03-25T16:45:01.444Z,68.50
2019-03-25T16:47:29.875Z,69.00
2019-03-25T16:49:58.328Z,69.40
2019-03-25T16:52:26.750Z,69.80
2019-03-25T16:54:55.209Z,69.20
2019-03-25T16:57:23.631Z,69.20
2019-03-25T16:59:52.187Z,69.60
2019-03-25T17:02:20.825Z,70.10
2019-03-25T17:04:49.786Z,70.10
2019-03-25T17:07:18.240Z,70.10
2019-03-25T17:09:46.672Z,70.00
2019-03-25T17:12:15.123Z,69.70
2019-03-25T17:14:43.558Z,70.00
2019-03-25T17:17:12.013Z,70.30
2019-03-25T17:19:40.455Z,70.30
2019-03-25T17:22:08.907Z,70.40
2019-03-25T17:24:37.398Z,71.00
2019-03-25T17:27:06.420Z,71.60
2019-03-25T17:29:34.858Z,71.50
2019-03-25T17:32:03.304Z,71.80
2019-03-25T17:34:31.771Z,71.50
2019-03-25T17:37:00.218Z,71.20
2019-03-25T17:39:28.658Z,71.70
2019-03-25T17:41:57.140Z,72.40
2019-03-25T17:44:25.764Z,72.60
2019-03-25T17:46:54.309Z,72.60
2019-03-25T17:49:22.814Z,73.00
2019-03-25T17:51:51.261Z,72.80
2019-03-25T17:54:19.702Z,72.70
2019-03-25T17:56:48.134Z,72.70
2019-03-25T17:59:16.577Z,72.40
2019-03-25T18:01:44.993Z,72.30
2019-03-25T18:04:13.458Z,72.70
2019-03-25T18:06:42.281Z,72.60
2019-03-25T18:09:10.795Z,72.50
2019-03-25T18:11:39.246Z,72.60
2019-03-25T18:14:07.765Z,72.30
2019-03-25T18:16:36.210Z,72.40
2019-03-25T18:19:04.981Z,72.50
2019-03-25T18:21:33.450Z,72.10
2019-03-25T18:24:01.922Z,72.60
2019-03-25T18:26:30.515Z,73.10
2019-03-25T18:28:58.954Z,73.60
2019-03-25T18:31:27.444Z,74.00
2019-03-25T18:33:56.131Z,74.10
2019-03-25T18:36:24.691Z,74.10
2019-03-25T18:38:54.737Z,74.00
2019-03-25T18:41:23.207Z,73.60
2019-03-25T18:43:51.684Z,73.40
2019-03-25T18:46:20.128Z,72.90
2019-03-25T18:48:48.774Z,73.10
2019-03-25T18:51:17.235Z,73.10
2019-03-25T18:53:45.765Z,73.60
2019-03-25T18:56:14.729Z,73.90
2019-03-25T18:58:43.238Z,73.90
2019-03-25T19:01:11.713Z,73.70
2019-03-25T19:03:40.167Z,73.70
2019-03-25T19:06:08.706Z,73.70
2019-03-25T19:08:38.382Z,73.60
2019-03-25T19:11:06.956Z,73.90
2019-03-25T19:13:35.479Z,74.00
2019-03-25T19:16:04.087Z,74.20
2019-03-25T19:18:32.654Z,74.10
2019-03-25T19:21:01.111Z,73.90
2019-03-25T19:23:29.637Z,73.80
2019-03-25T19:25:59.659Z,73.40
2019-03-25T19:28:28.086Z,73.00
2019-03-25T19:30:56.550Z,72.40
2019-03-25T19:33:25.029Z,72.40
2019-03-25T19:35:53.475Z,72.70
2019-03-25T19:38:22.001Z,73.00
2019-03-25T19:40:51.527Z,73.40
2019-03-25T19:43:20.075Z,73.80
2019-03-25T19:45:48.608Z,74.10
2019-03-25T19:48:17.060Z,74.10
2019-03-25T19:50:45.501Z,74.10
2019-03-25T19:53:18.974Z,74.10
2019-03-25T19:55:44.094Z,74.00
2019-03-25T19:58:12.537Z,74.20
2019-03-25T20:00:41.302Z,74.30
2019-03-25T20:03:09.883Z,74.10
2019-03-25T20:05:38.442Z,74.10
2019-03-25T20:08:07.202Z,74.10
2019-03-25T20:10:37.012Z,74.40
2019-03-25T20:13:06.293Z,74.10
2019-03-25T20:15:45.648Z,74.40
2019-03-25T20:18:05.270Z,73.80
2019-03-25T20:20:33.797Z,73.70
2019-03-25T20:23:02.262Z,73.80
2019-03-25T20:25:30.750Z,73.50
2019-03-25T20:27:59.179Z,73.60
2019-03-25T20:30:27.717Z,72.90
2019-03-25T20:32:56.204Z,73.20
2019-03-25T20:35:25.066Z,73.30
2019-03-25T20:37:53.650Z,73.60
2019-03-25T20:40:22.092Z,73.60
2019-03-25T20:42:50.757Z,73.70
2019-03-25T20:45:19.321Z,73.70
2019-03-25T20:47:47.847Z,73.50
2019-03-25T20:50:16.536Z,73.20
2019-03-25T20:52:45.006Z,72.90
2019-03-25T20:55:13.555Z,73.40
2019-03-25T20:57:42.147Z,73.40
2019-03-25T21:00:11.338Z,73.40
2019-03-25T21:02:44.851Z,73.30
2019-03-25T21:05:10.124Z,73.50
2019-03-25T21:07:38.636Z,73.30
2019-03-25T21:10:08.097Z,73.20
2019-03-25T21:12:38.597Z,73.10
2019-03-25T21:15:08.354Z,72.80
2019-03-25T21:17:36.932Z,72.50
2019-03-25T21:20:07.526Z,72.00
2019-03-25T21:22:36.054Z,71.90
2019-03-25T21:25:06.276Z,70.90
2019-03-25T21:27:34.746Z,70.20
2019-03-25T21:30:03.433Z,69.70
2019-03-25T21:32:31.863Z,69.30
2019-03-25T21:35:00.633Z,68.40
2019-03-25T21:37:29.112Z,67.80
2019-03-25T21:39:57.954Z,66.90
2019-03-25T21:42:29.053Z,66.80
2019-03-25T21:44:56.579Z,67.20
2019-03-25T21:47:25.154Z,67.80
2019-03-25T21:49:53.970Z,68.10
2019-03-25T21:52:22.450Z,68.40
2019-03-25T21:54:50.991Z,68.30
2019-03-25T21:57:19.607Z,67.60
2019-03-25T21:59:48.115Z,67.60
2019-03-25T22:02:16.794Z,66.60
2019-03-25T22:04:45.300Z,66.40
2019-03-25T22:07:13.735Z,65.60
2019-03-25T22:09:42.242Z,65.80
2019-03-25T22:12:10.668Z,65.60
2019-03-25T22:14:39.091Z,65.80
2019-03-25T22:17:07.550Z,65.90
2019-03-25T22:19:36.026Z,66.20
2019-03-25T22:22:04.481Z,66.80
2019-03-25T22:24:32.962Z,67.00
2019-03-25T22:27:01.401Z,67.10
2019-03-25T22:29:29.875Z,66.70
2019-03-25T22:31:58.307Z,67.00
2019-03-25T22:34:26.748Z,66.40
2019-03-25T22:36:55.179Z,66.10
2019-03-25T22:39:23.611Z,66.10
2019-03-25T22:41:52.061Z,65.60
2019-03-25T22:44:20.529Z,65.80
2019-03-25T22:46:48.938Z,66.20
2019-03-25T22:49:17.413Z,66.20
2019-03-25T22:51:46.299Z,66.00
2019-03-25T22:54:14.804Z,66.20
2019-03-25T22:56:43.264Z,66.40
2019-03-25T22:59:11.742Z,66.20
2019-03-25T23:01:40.207Z,66.10
2019-03-25T23:04:08.720Z,66.60
2019-03-25T23:06:37.251Z,66.60
2019-03-25T23:09:07.884Z,66.60
2019-03-25T23:11:36.776Z,66.70
2019-03-25T23:14:05.210Z,66.40
2019-03-25T23:16:33.642Z,66.40
2019-03-25T23:19:02.063Z,66.40
2019-03-25T23:21:30.513Z,66.60
2019-03-25T23:23:58.935Z,66.60
2019-03-25T23:26:27.366Z,66.40
2019-03-25T23:28:55.869Z,66.10
2019-03-25T23:31:24.329Z,65.80
2019-03-25T23:33:52.809Z,65.50
2019-03-25T23:36:21.262Z,65.70
2019-03-25T23:38:49.696Z,66.00
2019-03-25T23:41:18.178Z,66.10
2019-03-25T23:43:46.632Z,66.10
2019-03-25T23:46:15.112Z,66.10
2019-03-25T23:48:43.613Z,65.90
2019-03-25T23:51:12.110Z,65.80
2019-03-25T23:53:40.547Z,65.80
2019-03-25T23:56:11.603Z,65.30
2019-03-25T23:58:40.036Z,64.80
